createdAt,value
2022-11-05T00:00:13.042Z,99059.13
2022-11-05T00:02:58.144Z,99062.44
2022-11-05T00:05:40.677Z,99062.28
2022-11-05T00:08:23.468Z,99063.06
2022-11-05T00:10:53.828Z,99069.03
2022-11-05T00:13:36.361Z,99073.34
2022-11-05T00:16:19.043Z,99080.47
2022-11-05T00:19:06.775Z,99068.38
2022-11-05T00:21:51.000Z,99082.66
2022-11-05T00:24:33.505Z,99072.88
2022-11-05T00:27:03.627Z,99066.06
2022-11-05T00:29:33.749Z,99067.56
2022-11-05T00:32:03.954Z,99068.38
2022-11-05T00:34:36.708Z,99067.56
2022-11-05T00:37:06.798Z,99067.75
2022-11-05T00:39:37.065Z,99062.44
2022-11-05T00:42:19.918Z,99065.41
2022-11-05T00:45:03.679Z,99067.91
2022-11-05T00:47:54.591Z,99067.91
2022-11-05T00:50:27.729Z,99061.78
2022-11-05T00:53:00.624Z,99059.94
2022-11-05T00:55:35.869Z,99059.63
2022-11-05T00:58:07.522Z,99051.69
2022-11-05T01:00:39.342Z,99060.41
2022-11-05T01:03:11.867Z,99059.63
2022-11-05T01:05:46.676Z,99053.97
2022-11-05T01:08:18.466Z,99062.91
2022-11-05T01:10:51.996Z,99060.75
2022-11-05T01:13:24.135Z,99058.78
2022-11-05T01:15:54.493Z,99047.50
2022-11-05T01:18:26.374Z,99061.09
2022-11-05T01:20:59.110Z,99053.81
2022-11-05T01:23:29.311Z,99053.81
2022-11-05T01:26:01.615Z,99052.66
2022-11-05T01:28:31.697Z,99051.69
2022-11-05T01:31:01.921Z,99049.03
2022-11-05T01:33:31.979Z,99056.66
2022-11-05T01:36:04.799Z,99056.66
2022-11-05T01:38:34.851Z,99052.34
2022-11-05T01:41:05.012Z,99052.34
2022-11-05T01:43:49.796Z,99054.00
2022-11-05T01:46:22.742Z,99051.03
2022-11-05T01:49:02.736Z,99058.16
2022-11-05T01:51:36.213Z,99056.16
2022-11-05T01:54:11.765Z,99052.31
2022-11-05T01:56:46.475Z,99043.53
2022-11-05T01:59:22.044Z,99049.34
2022-11-05T02:01:53.255Z,99041.88
2022-11-05T02:04:35.731Z,99044.38
2022-11-05T02:07:12.563Z,99046.03
2022-11-05T02:09:50.844Z,99041.72
2022-11-05T02:12:22.665Z,99051.16
2022-11-05T02:14:52.940Z,99047.84
2022-11-05T02:17:32.697Z,99047.19
2022-11-05T02:20:27.300Z,99038.91
2022-11-05T02:23:25.534Z,99038.75
2022-11-05T02:26:25.555Z,99041.56
2022-11-05T02:29:24.263Z,99040.72
2022-11-05T02:32:04.195Z,99037.25
2022-11-05T02:34:45.223Z,99041.56
2022-11-05T02:37:24.440Z,99045.19
2022-11-05T02:40:06.225Z,99036.41
2022-11-05T02:42:45.827Z,99038.56
2022-11-05T02:45:29.083Z,99054.97
2022-11-05T02:48:10.553Z,99055.13
2022-11-05T02:50:49.330Z,99052.66
2022-11-05T02:53:28.508Z,99066.56
2022-11-05T02:56:04.246Z,99059.63
2022-11-05T02:58:37.097Z,99064.25
2022-11-05T03:01:07.223Z,99065.25
2022-11-05T03:03:43.356Z,99065.09
2022-11-05T03:06:29.113Z,99061.75
2022-11-05T03:09:15.043Z,99069.72
2022-11-05T03:11:54.207Z,99072.53
2022-11-05T03:14:32.099Z,99077.84
2022-11-05T03:17:09.499Z,99070.03
2022-11-05T03:19:50.861Z,99076.38
2022-11-05T03:22:27.061Z,99071.56
2022-11-05T03:25:01.275Z,99076.88
2022-11-05T03:27:34.811Z,99078.50
2022-11-05T03:30:10.819Z,99067.38
2022-11-05T03:32:45.131Z,99074.69
2022-11-05T03:35:22.338Z,99077.84
2022-11-05T03:37:59.216Z,99078.97
2022-11-05T03:40:32.431Z,99080.44
2022-11-05T03:43:06.730Z,99081.59
2022-11-05T03:45:41.189Z,99082.75
2022-11-05T03:48:14.536Z,99076.13
2022-11-05T03:50:54.119Z,99082.41
2022-11-05T03:53:28.611Z,99088.22
2022-11-05T03:56:04.197Z,99080.94
2022-11-05T03:58:37.239Z,99086.41
2022-11-05T04:01:08.030Z,99091.19
2022-11-05T04:03:38.946Z,99084.22
2022-11-05T04:06:25.915Z,99092.00
2022-11-05T04:09:08.372Z,99100.13
2022-11-05T04:11:51.297Z,99106.91
2022-11-05T04:14:21.654Z,99104.28
2022-11-05T04:17:04.096Z,99105.09
2022-11-05T04:19:46.624Z,99108.06
2022-11-05T04:22:31.711Z,99104.44
2022-11-05T04:25:01.759Z,99109.38
2022-11-05T04:27:31.993Z,99100.59
2022-11-05T04:30:14.932Z,99098.25
2022-11-05T04:32:45.230Z,99095.94
2022-11-05T04:35:15.284Z,99104.03
2022-11-05T04:37:47.929Z,99092.91
2022-11-05T04:40:18.122Z,99087.59
2022-11-05T04:42:48.347Z,99090.09
2022-11-05T04:45:18.549Z,99084.13
2022-11-05T04:47:48.668Z,99096.06
2022-11-05T04:50:19.077Z,99096.84
2022-11-05T04:52:51.863Z,99098.03
2022-11-05T04:55:22.139Z,99104.31
2022-11-05T04:57:53.010Z,99102.50
2022-11-05T05:00:24.890Z,99099.84
2022-11-05T05:02:55.165Z,99098.53
2022-11-05T05:05:25.374Z,99102.19
2022-11-05T05:07:58.065Z,99097.56
2022-11-05T05:10:28.210Z,99101.03
2022-11-05T05:12:58.544Z,99096.53
2022-11-05T05:15:28.618Z,99099.19
2022-11-05T05:17:59.784Z,99111.28
2022-11-05T05:20:42.375Z,99112.09
2022-11-05T05:23:15.015Z,99109.34
2022-11-05T05:25:45.124Z,99122.69
2022-11-05T05:28:15.164Z,99125.84
2022-11-05T05:30:45.326Z,99126.34
2022-11-05T05:33:15.465Z,99127.72
2022-11-05T05:35:45.551Z,99140.63
2022-11-05T05:38:18.204Z,99139.66
2022-11-05T05:40:48.422Z,99133.81
2022-11-05T05:43:18.669Z,99139.94
2022-11-05T05:45:48.822Z,99138.06
2022-11-05T05:48:18.954Z,99140.91
2022-11-05T05:50:49.046Z,99144.59
2022-11-05T05:53:21.905Z,99154.63
2022-11-05T05:55:51.916Z,99151.50
2022-11-05T05:58:22.064Z,99152.16
2022-11-05T06:00:52.275Z,99152.97
2022-11-05T06:03:22.693Z,99157.63
2022-11-05T06:05:53.975Z,99154.94
2022-11-05T06:08:26.710Z,99151.25
2022-11-05T06:10:56.876Z,99153.69
2022-11-05T06:13:27.060Z,99157.44
2022-11-05T06:16:02.340Z,99154.56
2022-11-05T06:18:33.251Z,99163.34
2022-11-05T06:21:05.072Z,99158.56
2022-11-05T06:23:39.981Z,99159.91
2022-11-05T06:26:11.730Z,99167.03
2022-11-05T06:28:42.573Z,99169.31
2022-11-05T06:31:13.533Z,99176.44
2022-11-05T06:33:44.166Z,99180.16
2022-11-05T06:36:17.955Z,99180.25
2022-11-05T06:38:50.440Z,99178.59
2022-11-05T06:41:20.815Z,99180.84
2022-11-05T06:43:50.955Z,99177.63
2022-11-05T06:46:21.298Z,99187.25
2022-11-05T06:48:51.500Z,99180.28
2022-11-05T06:51:21.683Z,99196.09
2022-11-05T06:53:54.439Z,99190.19
2022-11-05T06:56:24.721Z,99196.69
2022-11-05T06:58:54.772Z,99193.34
2022-11-05T07:01:25.292Z,99197.50
2022-11-05T07:03:55.634Z,99199.81
2022-11-05T07:06:25.641Z,99206.59
2022-11-05T07:08:58.288Z,99208.41
2022-11-05T07:11:29.374Z,99199.50
2022-11-05T07:14:01.255Z,99197.25
2022-11-05T07:16:34.431Z,99204.06
2022-11-05T07:19:04.953Z,99198.59
2022-11-05T07:21:35.115Z,99207.06
2022-11-05T07:24:09.416Z,99200.63
2022-11-05T07:26:39.521Z,99199.78
2022-11-05T07:29:10.138Z,99196.31
2022-11-05T07:31:40.354Z,99195.63
2022-11-05T07:34:10.598Z,99196.78
2022-11-05T07:36:41.619Z,99197.44
2022-11-05T07:39:14.442Z,99195.63
2022-11-05T07:41:44.605Z,99202.59
2022-11-05T07:44:14.667Z,99198.97
2022-11-05T07:46:44.812Z,99195.31
2022-11-05T07:49:14.887Z,99196.97
2022-11-05T07:51:45.510Z,99201.81
2022-11-05T07:54:18.540Z,99200.78
2022-11-05T07:56:49.879Z,99198.47
2022-11-05T07:59:23.082Z,99193.34
2022-11-05T08:01:53.410Z,99199.16
2022-11-05T08:04:23.868Z,99198.47
2022-11-05T08:06:53.934Z,99210.41
2022-11-05T08:09:26.699Z,99211.06
2022-11-05T08:12:02.594Z,99213.72
2022-11-05T08:14:33.367Z,99213.41
2022-11-05T08:17:03.401Z,99216.06
2022-11-05T08:19:33.467Z,99221.19
2022-11-05T08:22:03.566Z,99214.91
2022-11-05T08:24:36.194Z,99228.00
2022-11-05T08:27:06.507Z,99225.72
2022-11-05T08:29:37.732Z,99222.91
2022-11-05T08:32:09.192Z,99225.25
2022-11-05T08:34:42.009Z,99225.75
2022-11-05T08:37:12.132Z,99223.09
2022-11-05T08:39:45.126Z,99225.41
2022-11-05T08:42:15.401Z,99230.22
2022-11-05T08:44:45.401Z,99222.28
2022-11-05T08:47:15.518Z,99228.22
2022-11-05T08:49:45.539Z,99228.56
2022-11-05T08:52:15.618Z,99231.22
2022-11-05T08:54:48.277Z,99230.06
2022-11-05T08:57:18.373Z,99234.53
2022-11-05T08:59:48.572Z,99233.41
2022-11-05T09:02:18.788Z,99231.25
2022-11-05T09:04:48.916Z,99234.56
2022-11-05T09:07:18.964Z,99237.91
2022-11-05T09:09:51.784Z,99242.06
2022-11-05T09:12:21.879Z,99247.34
2022-11-05T09:14:51.952Z,99242.06
2022-11-05T09:17:24.359Z,99245.69
2022-11-05T09:19:54.923Z,99250.16
2022-11-05T09:22:25.047Z,99248.69
2022-11-05T09:24:57.716Z,99252.97
2022-11-05T09:27:27.791Z,99246.84
2022-11-05T09:29:58.027Z,99248.88
2022-11-05T09:32:28.197Z,99254.16
2022-11-05T09:35:00.430Z,99250.16
2022-11-05T09:37:30.624Z,99255.47
2022-11-05T09:40:04.585Z,99250.16
2022-11-05T09:42:40.760Z,99249.34
2022-11-05T09:45:16.572Z,99255.47
2022-11-05T09:47:51.027Z,99249.34
2022-11-05T09:50:29.456Z,99264.25
2022-11-05T09:52:59.709Z,99269.41
2022-11-05T09:55:36.445Z,99259.78
2022-11-05T09:58:13.905Z,99270.72
2022-11-05T10:00:44.764Z,99273.66
2022-11-05T10:03:19.047Z,99268.22
2022-11-05T10:05:51.496Z,99270.72
2022-11-05T10:08:25.538Z,99279.81
2022-11-05T10:11:03.390Z,99267.38
2022-11-05T10:13:42.992Z,99275.69
2022-11-05T10:16:24.744Z,99275.34
2022-11-05T10:18:57.892Z,99273.50
2022-11-05T10:21:59.510Z,99271.38
2022-11-05T10:24:20.508Z,99276.19
2022-11-05T10:26:55.969Z,99276.00
2022-11-05T10:29:30.171Z,99273.03
2022-11-05T10:32:02.765Z,99282.16
2022-11-05T10:34:36.256Z,99276.84
2022-11-05T10:37:07.086Z,99277.34
2022-11-05T10:39:38.169Z,99280.31
2022-11-05T10:42:37.680Z,99286.28
2022-11-05T10:45:17.334Z,99281.31
2022-11-05T10:47:54.794Z,99285.31
2022-11-05T10:50:28.307Z,99297.22
2022-11-05T10:53:01.805Z,99299.06
2022-11-05T10:55:34.967Z,99298.56
2022-11-05T10:58:22.700Z,99295.91
2022-11-05T11:01:13.300Z,99302.88
2022-11-05T11:03:47.389Z,99305.38
2022-11-05T11:06:30.372Z,99307.00
2022-11-05T11:09:10.885Z,99301.78
2022-11-05T11:11:42.844Z,99291.19
2022-11-05T11:14:24.210Z,99305.00
2022-11-05T11:16:57.533Z,99301.16
2022-11-05T11:19:31.118Z,99302.41
2022-11-05T11:22:21.665Z,99309.06
2022-11-05T11:24:54.213Z,99305.06
2022-11-05T11:27:36.994Z,99306.25
2022-11-05T11:30:18.392Z,99300.69
2022-11-05T11:32:50.687Z,99302.41
2022-11-05T11:35:27.022Z,99300.94
2022-11-05T11:38:01.148Z,99304.09
2022-11-05T11:40:34.724Z,99309.22
2022-11-05T11:43:15.788Z,99301.28
2022-11-05T11:45:52.384Z,99304.75
2022-11-05T11:48:26.502Z,99306.25
2022-11-05T11:50:56.791Z,99304.09
2022-11-05T11:53:36.351Z,99306.09
2022-11-05T11:56:18.386Z,99305.44
2022-11-05T11:58:50.774Z,99307.41
2022-11-05T12:01:47.131Z,99303.94
2022-11-05T12:04:31.505Z,99305.94
2022-11-05T12:07:19.467Z,99305.47
2022-11-05T12:10:04.418Z,99305.63
2022-11-05T12:12:44.826Z,99306.66
2022-11-05T12:15:30.603Z,99311.47
2022-11-05T12:18:08.747Z,99309.28
2022-11-05T12:20:58.543Z,99317.69
2022-11-05T12:23:46.208Z,99313.38
2022-11-05T12:26:29.590Z,99313.53
2022-11-05T12:29:19.302Z,99311.53
2022-11-05T12:32:02.946Z,99317.19
2022-11-05T12:34:51.345Z,99327.63
2022-11-05T12:37:31.747Z,99321.84
2022-11-05T12:40:36.340Z,99329.66
2022-11-05T12:43:16.551Z,99331.63
2022-11-05T12:45:52.879Z,99330.69
2022-11-05T12:48:57.778Z,99326.53
2022-11-05T12:51:40.629Z,99334.63
2022-11-05T12:54:23.322Z,99332.00
2022-11-05T12:56:56.970Z,99335.47
2022-11-05T12:59:30.974Z,99339.28
2022-11-05T13:02:09.320Z,99341.91
2022-11-05T13:04:44.973Z,99340.09
2022-11-05T13:07:22.893Z,99347.44
2022-11-05T13:09:57.267Z,99351.91
2022-11-05T13:12:30.474Z,99345.59
2022-11-05T13:15:07.235Z,99354.53
2022-11-05T13:17:43.913Z,99357.00
2022-11-05T13:20:22.060Z,99356.78
2022-11-05T13:23:00.853Z,99369.50
2022-11-05T13:25:34.357Z,99365.69
2022-11-05T13:28:13.477Z,99373.00
2022-11-05T13:30:46.920Z,99369.34
2022-11-05T13:33:22.659Z,99365.56
2022-11-05T13:36:18.016Z,99372.34
2022-11-05T13:39:00.237Z,99369.34
2022-11-05T13:41:40.694Z,99375.19
2022-11-05T13:44:31.059Z,99384.47
2022-11-05T13:47:31.265Z,99389.63
2022-11-05T13:50:27.462Z,99382.81
2022-11-05T13:53:11.178Z,99377.53
2022-11-05T13:55:59.158Z,99383.34
2022-11-05T13:58:59.438Z,99386.09
2022-11-05T14:01:48.070Z,99385.09
2022-11-05T14:04:30.038Z,99378.97
2022-11-05T14:07:11.541Z,99383.66
2022-11-05T14:09:43.228Z,99389.78
2022-11-05T14:12:24.442Z,99388.81
2022-11-05T14:15:02.730Z,99392.97
2022-11-05T14:17:56.547Z,99395.31
2022-11-05T14:20:56.635Z,99403.09
2022-11-05T14:23:52.037Z,99395.31
2022-11-05T14:26:25.680Z,99396.66
2022-11-05T14:29:31.139Z,99404.31
2022-11-05T14:32:09.510Z,99405.78
2022-11-05T14:34:47.224Z,99406.75
2022-11-05T14:37:40.928Z,99408.78
2022-11-05T14:40:32.236Z,99415.88
2022-11-05T14:43:05.815Z,99416.72
2022-11-05T14:45:39.363Z,99403.09
2022-11-05T14:48:30.242Z,99413.19
2022-11-05T14:51:02.474Z,99413.19
2022-11-05T14:53:36.618Z,99414.84
2022-11-05T14:56:12.386Z,99421.28
2022-11-05T14:58:43.866Z,99426.44
2022-11-05T15:01:57.408Z,99427.13
2022-11-05T15:04:32.958Z,99436.88
2022-11-05T15:07:34.868Z,99433.56
2022-11-05T15:10:11.037Z,99438.72
2022-11-05T15:12:47.990Z,99437.41
2022-11-05T15:15:24.566Z,99439.91
2022-11-05T15:18:05.845Z,99448.00
2022-11-05T15:20:44.351Z,99440.91
2022-11-05T15:23:18.624Z,99450.50
2022-11-05T15:25:54.733Z,99459.28
2022-11-05T15:28:32.195Z,99454.00
2022-11-05T15:31:07.177Z,99456.50
2022-11-05T15:33:39.155Z,99472.56
2022-11-05T15:36:32.655Z,99466.75
2022-11-05T15:39:27.942Z,99467.94
2022-11-05T15:41:53.910Z,99463.78
2022-11-05T15:44:33.320Z,99469.22
2022-11-05T15:47:19.560Z,99471.81
2022-11-05T15:49:52.027Z,99485.91
2022-11-05T15:52:27.453Z,99486.88
2022-11-05T15:55:20.165Z,99488.28
2022-11-05T15:57:52.840Z,99488.88
2022-11-05T16:00:28.743Z,99490.84
2022-11-05T16:03:03.201Z,99497.44
2022-11-05T16:05:36.997Z,99494.78
2022-11-05T16:08:20.080Z,99498.56
2022-11-05T16:10:53.408Z,99506.66
2022-11-05T16:13:28.736Z,99503.00
2022-11-05T16:16:01.489Z,99508.44
2022-11-05T16:18:37.827Z,99510.41
2022-11-05T16:21:10.503Z,99523.34
2022-11-05T16:23:48.870Z,99531.75
2022-11-05T16:27:01.986Z,99525.00
2022-11-05T16:29:35.233Z,99529.16
2022-11-05T16:32:08.467Z,99536.25
2022-11-05T16:34:42.859Z,99533.16
2022-11-05T16:37:17.776Z,99530.53
2022-11-05T16:39:51.407Z,99525.16
2022-11-05T16:42:37.158Z,99526.66
2022-11-05T16:45:09.785Z,99532.78
2022-11-05T16:47:40.623Z,99533.13
2022-11-05T16:50:23.836Z,99535.75
2022-11-05T16:52:55.452Z,99537.56
2022-11-05T16:55:28.963Z,99539.41
2022-11-05T16:57:59.959Z,99547.34
2022-11-05T17:00:30.680Z,99551.97
2022-11-05T17:03:01.192Z,99549.81
2022-11-05T17:05:33.908Z,99547.25
2022-11-05T17:08:04.245Z,99565.13
2022-11-05T17:10:38.551Z,99558.09
2022-11-05T17:13:09.040Z,99569.53
2022-11-05T17:15:40.421Z,99562.69
2022-11-05T17:18:18.146Z,99574.13
2022-11-05T17:20:51.190Z,99579.63
2022-11-05T17:23:23.673Z,99577.97
2022-11-05T17:25:58.576Z,99583.78
2022-11-05T17:28:29.239Z,99587.44
2022-11-05T17:31:01.919Z,99591.59
2022-11-05T17:33:33.075Z,99590.91
2022-11-05T17:36:09.190Z,99591.59
2022-11-05T17:38:39.801Z,99605.13
2022-11-05T17:41:18.709Z,99602.47
2022-11-05T17:43:49.468Z,99602.19
2022-11-05T17:46:20.488Z,99602.91
2022-11-05T17:48:50.886Z,99598.50
2022-11-05T17:51:22.538Z,99595.50
2022-11-05T17:53:54.209Z,99600.03
2022-11-05T17:56:33.850Z,99611.81
2022-11-05T17:59:05.467Z,99610.75
2022-11-05T18:01:43.348Z,99609.16
2022-11-05T18:04:14.536Z,99608.44
2022-11-05T18:06:44.869Z,99612.56
2022-11-05T18:09:15.611Z,99611.34
2022-11-05T18:11:48.632Z,99610.88
2022-11-05T18:14:23.861Z,99613.94
2022-11-05T18:16:55.535Z,99615.06
2022-11-05T18:19:25.974Z,99617.03
2022-11-05T18:21:57.379Z,99620.13
2022-11-05T18:24:28.089Z,99629.16
2022-11-05T18:27:01.081Z,99625.69
2022-11-05T18:29:33.280Z,99626.94
2022-11-05T18:32:05.263Z,99620.88
2022-11-05T18:34:38.307Z,99621.78
2022-11-05T18:37:09.288Z,99637.25
2022-11-05T18:39:39.791Z,99634.47
2022-11-05T18:42:14.115Z,99637.25
2022-11-05T18:44:44.536Z,99636.13
2022-11-05T18:47:16.502Z,99641.41
2022-11-05T18:49:46.979Z,99634.88
2022-11-05T18:52:17.426Z,99639.19
2022-11-05T18:54:47.857Z,99639.88
2022-11-05T18:57:21.338Z,99642.41
2022-11-05T18:59:53.022Z,99636.41
2022-11-05T19:02:23.908Z,99636.03
2022-11-05T19:05:22.533Z,99642.56
2022-11-05T19:07:44.894Z,99643.66
2022-11-05T19:10:16.392Z,99650.47
2022-11-05T19:12:50.396Z,99654.94
2022-11-05T19:15:21.362Z,99654.25
2022-11-05T19:17:51.930Z,99652.59
2022-11-05T19:20:22.630Z,99663.75
2022-11-05T19:22:53.362Z,99659.16
2022-11-05T19:25:26.565Z,99666.13
2022-11-05T19:28:01.908Z,99676.84
2022-11-05T19:30:32.485Z,99671.38
2022-11-05T19:33:02.785Z,99681.97
2022-11-05T19:35:38.348Z,99682.25
2022-11-05T19:38:11.825Z,99688.53
2022-11-05T19:40:42.473Z,99687.00
2022-11-05T19:43:15.464Z,99686.47
2022-11-05T19:45:45.941Z,99692.59
2022-11-05T19:48:19.715Z,99694.81
2022-11-05T19:50:50.605Z,99695.78
2022-11-05T19:53:21.077Z,99705.84
2022-11-05T19:55:51.676Z,99704.16
2022-11-05T19:58:24.753Z,99708.75
2022-11-05T20:00:58.126Z,99707.94
2022-11-05T20:03:28.528Z,99711.56
2022-11-05T20:06:03.709Z,99717.97
2022-11-05T20:08:43.496Z,99715.59
2022-11-05T20:11:24.655Z,99721.19
2022-11-05T20:13:57.789Z,99717.41
2022-11-05T20:16:29.465Z,99722.72
2022-11-05T20:19:00.989Z,99724.53
2022-11-05T20:21:31.415Z,99728.84
2022-11-05T20:24:01.738Z,99731.13
2022-11-05T20:26:32.919Z,99720.91
2022-11-05T20:29:06.274Z,99733.16
2022-11-05T20:31:36.619Z,99739.56
2022-11-05T20:34:07.227Z,99739.72
2022-11-05T20:36:37.525Z,99743.66
2022-11-05T20:39:08.196Z,99749.22
2022-11-05T20:41:39.187Z,99747.69
2022-11-05T20:44:12.724Z,99751.75
2022-11-05T20:46:43.077Z,99755.63
2022-11-05T20:49:13.506Z,99752.28
2022-11-05T20:51:43.800Z,99760.25
2022-11-05T20:54:14.199Z,99756.63
2022-11-05T20:56:45.499Z,99746.31
2022-11-05T20:59:18.451Z,99757.31
2022-11-05T21:01:48.918Z,99762.59
2022-11-05T21:04:19.403Z,99761.91
2022-11-05T21:06:49.737Z,99759.41
2022-11-05T21:09:20.284Z,99772.50
2022-11-05T21:12:03.254Z,99778.63
2022-11-05T21:14:36.176Z,99773.47
2022-11-05T21:17:10.530Z,99770.97
2022-11-05T21:19:41.608Z,99771.78
2022-11-05T21:22:15.232Z,99771.28
2022-11-05T21:24:46.103Z,99771.81
2022-11-05T21:27:16.424Z,99768.63
2022-11-05T21:29:49.351Z,99768.47
2022-11-05T21:32:19.711Z,99774.59
2022-11-05T21:34:50.001Z,99772.94
2022-11-05T21:37:20.512Z,99772.09
2022-11-05T21:39:51.327Z,99780.88
2022-11-05T21:42:21.587Z,99780.16
2022-11-05T21:45:00.054Z,99781.97
2022-11-05T21:47:31.784Z,99774.63
2022-11-05T21:50:02.446Z,99789.78
2022-11-05T21:52:44.924Z,99790.75
2022-11-05T21:55:28.044Z,99794.50
2022-11-05T21:58:10.773Z,99793.66
2022-11-05T22:00:43.762Z,99796.31
2022-11-05T22:03:13.812Z,99795.47
2022-11-05T22:05:44.027Z,99801.06
2022-11-05T22:08:14.699Z,99800.38
2022-11-05T22:10:45.061Z,99802.72
2022-11-05T22:13:15.220Z,99797.44
2022-11-05T22:15:57.475Z,99801.44
2022-11-05T22:18:27.798Z,99798.25
2022-11-05T22:20:58.149Z,99797.84
2022-11-05T22:23:28.235Z,99799.22
2022-11-05T22:26:02.630Z,99792.38
2022-11-05T22:28:32.676Z,99787.25
2022-11-05T22:31:05.374Z,99786.44
2022-11-05T22:33:35.422Z,99789.06
2022-11-05T22:36:06.775Z,99783.63
2022-11-05T22:38:37.032Z,99794.50
2022-11-05T22:41:10.880Z,99796.44
2022-11-05T22:43:41.269Z,99795.19
2022-11-05T22:46:14.439Z,99789.47
2022-11-05T22:48:44.837Z,99793.78
2022-11-05T22:51:15.864Z,99788.91
2022-11-05T22:53:46.087Z,99799.78
2022-11-05T22:56:17.324Z,99808.94
2022-11-05T22:58:47.292Z,99803.81
2022-11-05T23:01:20.196Z,99811.72
2022-11-05T23:03:50.735Z,99813.66
2022-11-05T23:06:33.867Z,99806.41
2022-11-05T23:09:16.423Z,99805.44
2022-11-05T23:11:47.239Z,99806.13
2022-11-05T23:14:17.212Z,99815.75
2022-11-05T23:17:02.096Z,99822.13
2022-11-05T23:19:44.904Z,99817.94
2022-11-05T23:22:28.353Z,99817.94
2022-11-05T23:24:58.104Z,99816.00
2022-11-05T23:27:31.027Z,99822.13
2022-11-05T23:30:01.809Z,99822.66
2022-11-05T23:32:32.630Z,99825.59
2022-11-05T23:35:02.601Z,99822.91
2022-11-05T23:37:45.690Z,99823.63
2022-11-05T23:40:16.551Z,99825.03
2022-11-05T23:42:59.222Z,99832.38
2022-11-05T23:45:41.620Z,99831.91
2022-11-05T23:48:19.301Z,99834.91
2022-11-05T23:50:52.186Z,99831.06
2022-11-05T23:53:22.670Z,99830.13
2022-11-05T23:55:52.888Z,99828.84
2022-11-05T23:58:22.876Z,99824.66
